Time;durP1;ratioP1;P1;durP2;ratioP2;P2;SDS_P1;SDS_P2;PMS_P1;PMS_P2;Temp;Humidity;BMP_temperature;BMP_pressure;BME280_temperature;BME280_humidity;BME280_pressure;Samples;Min_cycle;Max_cycle;Signal;HPM_P1;HPM_P2
2023/12/09 00:01:01;;;;;;;84.10;32.40;;;7.80;99.90;;;;;;5054833;28;20094;-67
2023/12/09 00:03:26;;;;;;;84.10;31.90;;;7.80;99.90;;;;;;5060464;28;20101;-67
2023/12/09 00:05:52;;;;;;;76.03;30.38;;;7.80;99.90;;;;;;5077622;28;20032;-67
2023/12/09 00:08:17;;;;;;;79.20;31.90;;;7.80;99.90;;;;;;5077803;28;20093;-67
2023/12/09 00:10:43;;;;;;;69.68;28.90;;;7.80;99.90;;;;;;5060932;28;20036;-67
2023/12/09 00:13:08;;;;;;;79.38;30.63;;;7.80;99.90;;;;;;5045521;28;20329;-67
2023/12/09 00:15:34;;;;;;;72.15;29.27;;;7.80;99.90;;;;;;5062191;28;20533;-67
2023/12/09 00:18:00;;;;;;;80.15;30.70;;;7.80;99.90;;;;;;5062402;28;20043;-67
2023/12/09 00:20:25;;;;;;;74.57;29.67;;;7.80;99.90;;;;;;5063002;28;20047;-67
2023/12/09 00:22:51;;;;;;;79.45;29.80;;;7.80;99.90;;;;;;5079343;28;20056;-67
2023/12/09 00:25:16;;;;;;;79.10;28.83;;;7.80;99.90;;;;;;5062595;28;20044;-67
2023/12/09 00:27:42;;;;;;;64.63;28.13;;;7.80;99.90;;;;;;5063976;28;20047;-67
2023/12/09 00:30:08;;;;;;;74.05;27.52;;;7.80;99.90;;;;;;5059794;28;20123;-67
2023/12/09 00:32:33;;;;;;;76.35;28.17;;;7.80;99.90;;;;;;5059913;28;20123;-67
2023/12/09 00:35:00;;;;;;;72.05;29.77;;;7.80;99.90;;;;;;5079659;28;20032;-67
2023/12/09 00:37:26;;;;;;;68.60;28.70;;;7.90;99.90;;;;;;5068177;28;20078;-67
2023/12/09 00:39:52;;;;;;;66.30;28.33;;;7.90;99.90;;;;;;5061968;28;20071;-67
2023/12/09 00:42:17;;;;;;;67.70;28.80;;;7.90;99.90;;;;;;5065026;28;20123;-67
2023/12/09 00:44:43;;;;;;;66.47;28.15;;;7.80;99.90;;;;;;5082601;28;20032;-67
2023/12/09 00:47:09;;;;;;;67.93;27.92;;;7.90;99.90;;;;;;5062132;28;20042;-67
2023/12/09 00:49:34;;;;;;;69.05;28.75;;;7.90;99.90;;;;;;5063410;28;20081;-67
2023/12/09 00:52:00;;;;;;;61.72;26.00;;;7.90;99.90;;;;;;5060073;28;20429;-67
2023/12/09 00:54:26;;;;;;;67.18;27.55;;;7.90;99.90;;;;;;5063802;28;20047;-67
2023/12/09 00:56:51;;;;;;;62.67;26.23;;;7.90;99.90;;;;;;5075195;28;20058;-67
2023/12/09 00:59:17;;;;;;;60.55;25.88;;;8.50;99.90;;;;;;5059015;28;20384;-67
2023/12/09 01:01:42;;;;;;;67.45;25.23;;;7.90;99.90;;;;;;5079685;28;20032;-67
2023/12/09 01:04:08;;;;;;;56.00;27.30;;;7.90;99.90;;;;;;5059330;28;20064;-67
2023/12/09 01:06:33;;;;;;;57.85;25.60;;;7.90;99.90;;;;;;5059584;28;20032;-67
2023/12/09 01:08:59;;;;;;;69.82;27.58;;;7.90;99.90;;;;;;5062908;28;20114;-67
2023/12/09 01:11:25;;;;;;;65.43;26.38;;;7.90;99.90;;;;;;5059636;28;20127;-67
2023/12/09 01:13:50;;;;;;;69.55;26.25;;;7.90;99.90;;;;;;5058271;28;20036;-67
2023/12/09 01:16:16;;;;;;;62.28;25.52;;;7.90;99.90;;;;;;5057073;28;20056;-67
2023/12/09 01:18:43;;;;;;;66.68;24.45;;;7.90;99.90;;;;;;5059197;28;20127;-67
2023/12/09 01:21:08;;;;;;;59.38;23.88;;;7.90;99.90;;;;;;5060632;28;20150;-67
2023/12/09 01:23:34;;;;;;;66.10;24.77;;;7.90;99.90;;;;;;5060950;28;20047;-67
2023/12/09 01:25:59;;;;;;;61.70;23.27;;;7.90;99.90;;;;;;5057932;28;20465;-66
2023/12/09 01:28:25;;;;;;;60.53;25.60;;;7.90;99.90;;;;;;5079897;28;20028;-66
2023/12/09 01:30:50;;;;;;;57.15;24.23;;;7.90;99.90;;;;;;5076187;28;20123;-67
2023/12/09 01:33:16;;;;;;;53.90;24.73;;;7.90;99.90;;;;;;5069661;28;20494;-67
2023/12/09 01:35:42;;;;;;;53.97;24.15;;;7.90;99.90;;;;;;5078702;28;20040;-67
2023/12/09 01:38:08;;;;;;;53.65;23.15;;;8.30;99.90;;;;;;5076244;28;20570;-67
2023/12/09 01:40:33;;;;;;;61.45;23.52;;;7.90;99.90;;;;;;5043865;28;20036;-67
2023/12/09 01:42:59;;;;;;;40.30;21.50;;;7.90;99.90;;;;;;5059193;28;20451;-67
2023/12/09 01:45:24;;;;;;;50.05;23.05;;;8.00;99.90;;;;;;5076117;28;20033;-67
2023/12/09 01:47:50;;;;;;;58.88;22.55;;;7.90;99.90;;;;;;5058337;28;20043;-67
2023/12/09 01:50:16;;;;;;;55.53;22.35;;;7.90;99.90;;;;;;5058849;28;20032;-67
2023/12/09 01:52:42;;;;;;;51.13;21.60;;;7.90;99.90;;;;;;5060424;28;20060;-67
2023/12/09 01:55:10;;;;;;;56.00;21.58;;;7.90;99.90;;;;;;5060193;28;20045;-67
2023/12/09 01:57:36;;;;;;;56.03;22.48;;;7.90;99.90;;;;;;5058427;28;20086;-67
2023/12/09 02:00:03;;;;;;;57.92;23.95;;;7.90;99.90;;;;;;5054941;28;20062;-67
2023/12/09 02:02:30;;;;;;;60.92;22.70;;;7.90;99.90;;;;;;5075726;28;20406;-67
2023/12/09 02:04:56;;;;;;;50.95;21.00;;;8.00;99.90;;;;;;5059849;28;20060;-67
2023/12/09 02:07:22;;;;;;;50.65;22.52;;;8.00;99.90;;;;;;5079169;28;20032;-67
2023/12/09 02:09:48;;;;;;;52.67;22.45;;;8.40;99.90;;;;;;5065682;28;20379;-67
2023/12/09 02:12:51;;;;;;;49.75;21.75;;;7.90;99.90;;;;;;5074511;28;20175;-67
2023/12/09 02:15:24;;;;;;;52.33;21.25;;;7.90;99.90;;;;;;5061585;28;20047;-67
2023/12/09 02:17:54;;;;;;;48.22;20.63;;;7.90;99.90;;;;;;5078744;28;20435;-67
2023/12/09 02:20:19;;;;;;;54.05;21.83;;;8.00;99.90;;;;;;5056187;28;20044;-67
2023/12/09 02:22:45;;;;;;;48.55;20.48;;;8.00;99.90;;;;;;5076287;28;20039;-67
2023/12/09 02:25:11;;;;;;;56.95;21.42;;;8.00;99.90;;;;;;5077368;28;20039;-67
2023/12/09 02:27:54;;;;;;;49.60;22.15;;;8.00;99.90;;;;;;5058522;28;20510;-67
2023/12/09 02:30:34;;;;;;;47.85;20.25;;;7.90;99.90;;;;;;5059948;28;20036;-67
2023/12/09 02:33:00;;;;;;;49.83;20.88;;;8.00;99.90;;;;;;5089298;28;20063;-67
2023/12/09 02:35:29;;;;;;;54.22;21.08;;;8.00;99.90;;;;;;5059037;28;20036;-67
2023/12/09 02:37:56;;;;;;;50.17;19.90;;;8.00;99.90;;;;;;5077713;28;20123;-67
2023/12/09 02:40:23;;;;;;;55.83;22.10;;;8.00;99.90;;;;;;5075260;28;20040;-67
2023/12/09 02:42:50;;;;;;;44.25;20.23;;;8.00;99.90;;;;;;5059284;28;20635;-67
2023/12/09 02:45:19;;;;;;;45.28;20.23;;;8.00;99.90;;;;;;5064027;28;20051;-66
2023/12/09 02:47:47;;;;;;;53.80;20.02;;;8.00;99.90;;;;;;5057931;28;20129;-67
2023/12/09 02:50:13;;;;;;;46.13;19.25;;;8.00;99.90;;;;;;5059335;28;20603;-66
2023/12/09 02:52:39;;;;;;;45.13;18.35;;;7.90;99.90;;;;;;5089754;28;20044;-67
2023/12/09 02:55:06;;;;;;;48.35;19.83;;;8.00;99.90;;;;;;5055690;28;20094;-67
2023/12/09 02:57:32;;;;;;;44.42;19.45;;;8.00;99.90;;;;;;5058601;28;20063;-67
2023/12/09 02:59:58;;;;;;;38.08;17.55;;;8.00;99.90;;;;;;5077842;28;20109;-67
2023/12/09 03:02:24;;;;;;;37.33;16.75;;;7.90;99.90;;;;;;5058000;28;20075;-67
2023/12/09 03:04:49;;;;;;;46.45;17.98;;;8.00;99.90;;;;;;5061267;28;20152;-67
2023/12/09 03:07:20;;;;;;;43.47;17.75;;;8.00;99.90;;;;;;5074562;28;20040;-67
2023/12/09 03:09:46;;;;;;;39.20;17.58;;;7.90;99.90;;;;;;5058688;28;20115;-67
2023/12/09 03:12:12;;;;;;;38.47;17.60;;;7.90;99.90;;;;;;5058370;28;20379;-67
2023/12/09 03:14:37;;;;;;;49.95;18.65;;;7.90;99.90;;;;;;5063472;28;20035;-67
2023/12/09 03:17:03;;;;;;;48.97;16.35;;;7.80;99.90;;;;;;5076469;28;20048;-67
2023/12/09 03:19:28;;;;;;;33.17;14.98;;;7.90;99.90;;;;;;5057437;28;20482;-67
2023/12/09 03:21:54;;;;;;;37.20;15.75;;;7.80;99.90;;;;;;5059696;28;20061;-67
2023/12/09 03:24:19;;;;;;;36.85;16.45;;;7.90;99.90;;;;;;5058900;28;20393;-67
2023/12/09 03:26:52;;;;;;;39.55;15.75;;;7.80;99.90;;;;;;5076818;28;20033;-67
2023/12/09 03:29:18;;;;;;;38.63;14.55;;;7.80;99.90;;;;;;5075826;28;20114;-67
2023/12/09 03:31:44;;;;;;;43.92;18.40;;;7.80;99.90;;;;;;5060719;28;20067;-67
2023/12/09 03:34:10;;;;;;;39.22;15.95;;;7.80;99.90;;;;;;5061152;28;20079;-67
2023/12/09 03:36:35;;;;;;;36.65;15.75;;;7.80;99.90;;;;;;5057802;28;20036;-66
2023/12/09 03:39:01;;;;;;;34.35;14.95;;;7.80;99.90;;;;;;5073526;28;20093;-67
2023/12/09 03:41:26;;;;;;;35.22;15.23;;;7.80;99.90;;;;;;5076063;28;20040;-67
2023/12/09 03:43:52;;;;;;;33.45;15.85;;;7.80;99.90;;;;;;5077396;28;20123;-67
2023/12/09 03:46:18;;;;;;;35.25;14.45;;;7.70;99.90;;;;;;5077322;28;20482;-67
2023/12/09 03:48:43;;;;;;;33.72;14.82;;;7.80;99.90;;;;;;5057295;28;20040;-67
2023/12/09 03:51:09;;;;;;;36.15;16.13;;;7.80;99.90;;;;;;5075495;28;20641;-67
2023/12/09 03:53:34;;;;;;;39.70;14.50;;;7.80;99.90;;;;;;5076241;28;20059;-67
2023/12/09 03:56:00;;;;;;;34.50;14.85;;;7.80;99.90;;;;;;5075873;28;20044;-67
2023/12/09 03:58:26;;;;;;;35.20;14.40;;;7.80;99.90;;;;;;5059485;28;20482;-67
2023/12/09 04:00:51;;;;;;;38.63;14.20;;;7.80;99.90;;;;;;5054942;28;20040;-67
2023/12/09 04:03:17;;;;;;;35.63;14.15;;;7.80;99.90;;;;;;5056225;28;20039;-67
2023/12/09 04:05:42;;;;;;;45.53;16.55;;;7.70;99.90;;;;;;5058842;28;20040;-67
2023/12/09 04:08:08;;;;;;;38.05;15.23;;;7.70;99.90;;;;;;5058608;28;20045;-67
2023/12/09 04:10:34;;;;;;;36.85;13.70;;;7.70;99.90;;;;;;5077356;28;20024;-67
2023/12/09 04:13:00;;;;;;;39.35;13.50;;;7.80;99.90;;;;;;5058912;28;21588;-67
2023/12/09 04:15:27;;;;;;;33.90;12.82;;;7.70;99.90;;;;;;5076455;28;20147;-67
2023/12/09 04:17:53;;;;;;;35.08;13.48;;;7.70;99.90;;;;;;5074791;28;20044;-67
2023/12/09 04:20:19;;;;;;;45.50;13.57;;;7.70;99.90;;;;;;5073531;28;20068;-67
2023/12/09 04:22:44;;;;;;;38.28;13.13;;;7.80;99.90;;;;;;5057599;28;20075;-67
2023/12/09 04:25:10;;;;;;;40.05;13.32;;;7.80;99.90;;;;;;5075145;28;20051;-67
2023/12/09 04:27:36;;;;;;;37.67;12.93;;;7.70;99.90;;;;;;5058883;28;20044;-67
2023/12/09 04:30:04;;;;;;;37.10;12.10;;;7.70;99.90;;;;;;5056537;28;20041;-67
2023/12/09 04:32:31;;;;;;;32.67;11.30;;;7.70;99.90;;;;;;5074567;28;20630;-67
2023/12/09 04:34:57;;;;;;;32.47;12.25;;;7.80;99.90;;;;;;5088746;28;20131;-67
2023/12/09 04:37:23;;;;;;;37.22;12.65;;;7.80;99.90;;;;;;5054999;28;20048;-67
2023/12/09 04:39:49;;;;;;;39.70;13.00;;;7.80;99.90;;;;;;5060498;28;20052;-67
2023/12/09 04:42:15;;;;;;;30.45;12.52;;;7.70;99.90;;;;;;5043726;28;20063;-67
2023/12/09 04:44:41;;;;;;;32.75;11.40;;;7.70;99.90;;;;;;5081156;28;20040;-67
2023/12/09 04:47:07;;;;;;;40.28;12.02;;;7.70;99.90;;;;;;5074820;28;20051;-67
2023/12/09 04:49:33;;;;;;;31.65;12.63;;;7.80;99.90;;;;;;5057221;28;20119;-67
2023/12/09 04:51:59;;;;;;;30.55;12.75;;;7.80;99.90;;;;;;5060434;28;20151;-67
2023/12/09 04:54:24;;;;;;;29.92;11.43;;;7.80;99.90;;;;;;5062195;28;20058;-67
2023/12/09 04:56:50;;;;;;;29.15;11.10;;;7.80;99.90;;;;;;5077091;28;20040;-67
2023/12/09 04:59:15;;;;;;;34.70;14.30;;;7.80;99.90;;;;;;5077773;28;20402;-67
2023/12/09 05:01:41;;;;;;;37.28;12.77;;;7.80;99.90;;;;;;5079155;28;20028;-67
2023/12/09 05:04:08;;;;;;;34.58;11.80;;;7.80;99.90;;;;;;5049892;28;20048;-67
2023/12/09 05:06:34;;;;;;;29.67;11.43;;;7.80;99.90;;;;;;5077589;28;20119;-67
2023/12/09 05:09:00;;;;;;;32.20;11.57;;;7.80;99.90;;;;;;5059862;28;20127;-67
2023/12/09 05:11:25;;;;;;;37.38;12.57;;;8.20;99.90;;;;;;5089231;28;20127;-67
2023/12/09 05:13:51;;;;;;;32.55;11.20;;;7.80;99.90;;;;;;5061344;28;20048;-67
2023/12/09 05:16:16;;;;;;;35.53;11.00;;;7.80;99.90;;;;;;5062972;28;20045;-67
2023/12/09 05:18:42;;;;;;;30.17;11.73;;;7.80;99.90;;;;;;5058617;28;20056;-67
2023/12/09 05:21:08;;;;;;;31.33;11.35;;;7.80;99.90;;;;;;5060797;28;20035;-67
2023/12/09 05:23:34;;;;;;;29.70;10.93;;;7.80;99.90;;;;;;5061887;28;20075;-67
2023/12/09 05:26:00;;;;;;;32.88;10.65;;;7.80;99.90;;;;;;5058069;28;20091;-67
2023/12/09 05:28:26;;;;;;;42.58;12.48;;;7.80;99.90;;;;;;5079114;28;20135;-67
2023/12/09 05:30:51;;;;;;;29.25;11.25;;;7.80;99.90;;;;;;5078100;28;20032;-67
2023/12/09 05:33:17;;;;;;;36.60;11.02;;;7.80;99.90;;;;;;5061940;28;20612;-67
2023/12/09 05:35:43;;;;;;;35.47;11.95;;;7.80;99.90;;;;;;5078231;28;20048;-67
2023/12/09 05:38:09;;;;;;;28.83;10.77;;;7.80;99.90;;;;;;5076224;28;20478;-67
2023/12/09 05:40:34;;;;;;;40.80;12.13;;;7.80;99.90;;;;;;5061546;28;20051;-67
2023/12/09 05:43:00;;;;;;;36.78;12.05;;;7.80;99.90;;;;;;5059630;28;20040;-67
2023/12/09 05:45:26;;;;;;;36.60;11.80;;;7.80;99.90;;;;;;5077018;28;20043;-67
2023/12/09 05:47:51;;;;;;;32.67;11.82;;;7.80;99.90;;;;;;5077909;28;20505;-67
2023/12/09 05:50:17;;;;;;;35.85;12.30;;;7.70;99.90;;;;;;5077940;28;20039;-67
2023/12/09 05:52:43;;;;;;;30.48;11.45;;;7.80;99.90;;;;;;5047331;28;20036;-67
2023/12/09 05:55:08;;;;;;;31.75;11.68;;;7.70;99.90;;;;;;5064424;28;20133;-67
2023/12/09 05:57:34;;;;;;;29.70;11.50;;;7.70;99.90;;;;;;5075263;28;20036;-67
2023/12/09 05:59:59;;;;;;;31.30;11.10;;;7.70;99.90;;;;;;5076851;28;20086;-67
2023/12/09 06:02:25;;;;;;;37.15;14.30;;;7.70;99.90;;;;;;5077550;28;20036;-67
2023/12/09 06:04:50;;;;;;;34.85;12.55;;;7.70;99.90;;;;;;5077440;28;20040;-67
2023/12/09 06:07:16;;;;;;;33.17;11.57;;;7.70;99.90;;;;;;5079503;28;20083;-67
2023/12/09 06:09:42;;;;;;;33.55;11.70;;;7.70;99.90;;;;;;5077946;28;20033;-67
2023/12/09 06:12:08;;;;;;;29.75;12.02;;;7.60;99.90;;;;;;5078204;28;20032;-67
2023/12/09 06:14:33;;;;;;;38.42;12.18;;;7.60;99.90;;;;;;5060538;28;20096;-67
2023/12/09 06:16:59;;;;;;;28.88;11.50;;;7.60;99.90;;;;;;5063078;28;20035;-67
2023/12/09 06:19:24;;;;;;;30.92;11.43;;;7.60;99.90;;;;;;5076787;28;20490;-67
2023/12/09 06:21:50;;;;;;;32.13;12.30;;;7.60;99.90;;;;;;5074135;28;20032;-67
2023/12/09 06:24:16;;;;;;;29.73;11.82;;;7.60;99.90;;;;;;5079089;28;20510;-67
2023/12/09 06:26:45;;;;;;;29.88;11.27;;;7.60;99.90;;;;;;5058551;28;20048;-67
2023/12/09 06:29:14;;;;;;;35.75;11.57;;;7.50;99.90;;;;;;5058227;28;20119;-67
2023/12/09 06:31:40;;;;;;;30.23;11.18;;;7.60;99.90;;;;;;5078292;28;20040;-67
2023/12/09 06:34:06;;;;;;;34.70;10.75;;;7.60;99.90;;;;;;5078405;28;20079;-67
2023/12/09 06:36:31;;;;;;;28.13;11.40;;;7.50;99.90;;;;;;5066458;28;20048;-67
2023/12/09 06:38:57;;;;;;;29.33;11.48;;;7.50;99.90;;;;;;5076960;28;20040;-67
2023/12/09 06:41:22;;;;;;;27.70;10.13;;;7.50;99.90;;;;;;5079977;28;20347;-67
2023/12/09 06:43:48;;;;;;;32.60;9.70;;;7.50;99.90;;;;;;5077898;28;20193;-67
2023/12/09 06:46:13;;;;;;;33.22;10.05;;;7.40;99.90;;;;;;5079182;28;20040;-67
2023/12/09 06:48:39;;;;;;;33.42;10.32;;;7.40;99.90;;;;;;5061268;28;20471;-67
2023/12/09 06:51:08;;;;;;;36.45;11.10;;;7.40;99.90;;;;;;5058182;28;20040;-67
2023/12/09 06:53:38;;;;;;;32.50;10.52;;;7.40;99.90;;;;;;5074897;28;20041;-67
2023/12/09 06:56:04;;;;;;;29.33;10.75;;;7.40;99.90;;;;;;5057650;28;20051;-67
2023/12/09 06:58:29;;;;;;;31.90;10.00;;;7.40;99.90;;;;;;5058107;28;20043;-67
2023/12/09 07:00:55;;;;;;;33.13;11.13;;;7.40;99.90;;;;;;5066529;28;20028;-67
2023/12/09 07:03:21;;;;;;;29.52;11.43;;;7.30;99.90;;;;;;5075673;28;20041;-67
2023/12/09 07:05:47;;;;;;;26.35;9.93;;;7.40;99.90;;;;;;5059567;28;20121;-67
2023/12/09 07:08:12;;;;;;;32.72;9.88;;;7.40;99.90;;;;;;5062601;28;20583;-67
2023/12/09 07:10:38;;;;;;;32.45;10.52;;;7.30;99.90;;;;;;5058624;28;20032;-67
2023/12/09 07:13:04;;;;;;;33.90;10.73;;;7.30;99.90;;;;;;5044096;28;20037;-67
2023/12/09 07:15:30;;;;;;;25.45;9.15;;;7.30;99.90;;;;;;5056978;28;20062;-67
2023/12/09 07:17:55;;;;;;;30.55;9.23;;;7.30;99.90;;;;;;5061832;28;20036;-67
2023/12/09 07:20:21;;;;;;;29.85;9.70;;;7.20;99.90;;;;;;5060214;28;20606;-67
2023/12/09 07:22:47;;;;;;;26.58;9.70;;;7.30;99.90;;;;;;5090481;28;20089;-67
2023/12/09 07:25:12;;;;;;;29.05;10.18;;;7.20;99.90;;;;;;5056740;28;20402;-68
2023/12/09 07:27:38;;;;;;;27.13;9.32;;;7.20;99.90;;;;;;5075905;28;20046;-67
2023/12/09 07:30:05;;;;;;;23.30;9.93;;;7.30;99.90;;;;;;5055131;28;20040;-67
2023/12/09 07:32:31;;;;;;;28.08;9.43;;;7.30;99.90;;;;;;5056932;28;20097;-67
2023/12/09 07:34:56;;;;;;;22.67;8.70;;;7.20;99.90;;;;;;5058880;28;20036;-67
2023/12/09 07:37:22;;;;;;;27.88;9.07;;;7.20;99.90;;;;;;5079207;28;20036;-67
2023/12/09 07:39:47;;;;;;;25.05;8.23;;;7.20;99.90;;;;;;5074839;28;20039;-67
2023/12/09 07:42:13;;;;;;;21.48;8.75;;;7.20;99.90;;;;;;5074602;28;20036;-67
2023/12/09 07:44:38;;;;;;;25.23;8.82;;;7.20;99.90;;;;;;5062374;28;20047;-67
2023/12/09 07:47:04;;;;;;;26.90;8.18;;;7.20;99.90;;;;;;5076606;28;20417;-67
2023/12/09 07:49:30;;;;;;;33.15;8.98;;;7.20;99.90;;;;;;5080195;28;20116;-67
2023/12/09 07:51:55;;;;;;;34.42;9.82;;;7.30;99.90;;;;;;5057789;28;20086;-67
2023/12/09 07:54:21;;;;;;;26.40;8.25;;;7.30;99.90;;;;;;5057315;28;20032;-67
2023/12/09 07:56:46;;;;;;;23.17;7.60;;;7.30;99.90;;;;;;5058834;28;20075;-67
2023/12/09 07:59:12;;;;;;;20.63;6.57;;;7.20;99.90;;;;;;5059133;28;20520;-67
2023/12/09 08:01:38;;;;;;;26.40;6.68;;;7.30;99.90;;;;;;5061542;28;20040;-67
2023/12/09 08:04:04;;;;;;;28.00;7.55;;;7.20;99.90;;;;;;5072192;28;20032;-67
2023/12/09 08:06:29;;;;;;;20.60;6.90;;;7.20;99.90;;;;;;5074778;28;20505;-67
2023/12/09 08:08:55;;;;;;;28.45;6.70;;;7.20;99.90;;;;;;5057370;28;20402;-67
2023/12/09 08:11:20;;;;;;;23.83;6.25;;;7.20;99.90;;;;;;5077131;28;20035;-67
2023/12/09 08:13:47;;;;;;;25.15;6.55;;;7.30;99.90;;;;;;5063016;28;20501;-67
2023/12/09 08:16:13;;;;;;;19.38;6.25;;;7.20;99.90;;;;;;5059865;28;20048;-67
2023/12/09 08:18:39;;;;;;;28.67;7.10;;;7.20;99.90;;;;;;5078223;28;20501;-67
2023/12/09 08:21:05;;;;;;;23.42;5.28;;;7.20;99.90;;;;;;5076788;28;20044;-67
2023/12/09 08:23:30;;;;;;;22.45;5.63;;;7.30;99.90;;;;;;5078522;28;20493;-67
2023/12/09 08:25:56;;;;;;;22.27;5.82;;;7.60;99.90;;;;;;5074953;28;20048;-67
2023/12/09 08:28:22;;;;;;;15.30;5.63;;;7.30;99.90;;;;;;5059029;28;20106;-67
2023/12/09 08:30:47;;;;;;;19.67;5.15;;;7.30;99.90;;;;;;5067181;28;20105;-67
2023/12/09 08:33:13;;;;;;;16.10;4.40;;;7.20;99.90;;;;;;5062259;28;20040;-67
2023/12/09 08:35:39;;;;;;;22.10;5.45;;;7.20;99.90;;;;;;5065307;28;20068;-67
2023/12/09 08:38:05;;;;;;;15.23;4.78;;;7.20;99.90;;;;;;5077081;28;20557;-67
2023/12/09 08:40:30;;;;;;;18.55;4.80;;;7.30;99.90;;;;;;5063959;28;20398;-67
2023/12/09 08:42:56;;;;;;;19.15;4.72;;;7.50;99.90;;;;;;5062220;28;20040;-67
2023/12/09 08:45:21;;;;;;;21.13;5.35;;;7.30;99.90;;;;;;5082727;28;20493;-67
2023/12/09 08:47:47;;;;;;;18.65;5.70;;;7.20;99.90;;;;;;5080717;28;20048;-67
2023/12/09 08:50:13;;;;;;;26.98;5.00;;;7.20;99.90;;;;;;5079725;28;20032;-67
2023/12/09 08:52:39;;;;;;;17.10;4.72;;;7.20;99.90;;;;;;5082273;28;20390;-67
2023/12/09 08:55:05;;;;;;;16.02;4.13;;;7.20;99.90;;;;;;5080516;28;20036;-67
2023/12/09 08:57:31;;;;;;;18.25;4.20;;;7.20;99.90;;;;;;5093456;28;20053;-67
2023/12/09 08:59:57;;;;;;;18.52;4.45;;;7.20;99.90;;;;;;5063063;28;20051;-67
2023/12/09 09:02:23;;;;;;;17.88;3.83;;;7.20;99.90;;;;;;5080549;28;20117;-67
2023/12/09 09:04:49;;;;;;;17.90;4.35;;;7.20;99.90;;;;;;5045663;28;20387;-67
2023/12/09 09:07:15;;;;;;;13.02;3.83;;;7.30;99.90;;;;;;5080173;28;20058;-67
2023/12/09 09:09:40;;;;;;;16.02;3.67;;;7.30;99.90;;;;;;5061669;28;20037;-67
2023/12/09 09:12:07;;;;;;;13.30;3.55;;;7.20;99.90;;;;;;5079556;28;20198;-67
2023/12/09 09:14:36;;;;;;;16.63;3.67;;;7.30;99.90;;;;;;5095498;28;20036;-67
2023/12/09 09:17:05;;;;;;;17.38;4.20;;;7.30;99.90;;;;;;5095039;28;20047;-67
2023/12/09 09:19:31;;;;;;;14.55;4.53;;;7.30;99.90;;;;;;5062282;28;20045;-67
2023/12/09 09:21:57;;;;;;;27.63;4.65;;;7.30;99.90;;;;;;5059620;28;20052;-67
2023/12/09 09:24:22;;;;;;;14.45;3.42;;;7.30;99.90;;;;;;5090784;28;20518;-67
2023/12/09 09:26:48;;;;;;;19.85;3.40;;;7.30;99.90;;;;;;5063078;28;20135;-67
2023/12/09 09:29:14;;;;;;;13.85;3.53;;;7.30;99.90;;;;;;5062185;28;20509;-67
2023/12/09 09:31:39;;;;;;;16.80;2.92;;;7.30;99.90;;;;;;5080480;28;20028;-67
2023/12/09 09:34:05;;;;;;;18.10;4.32;;;7.30;99.90;;;;;;5067721;28;20045;-67
2023/12/09 09:36:31;;;;;;;16.85;3.40;;;7.40;99.90;;;;;;5094689;27;20502;-67
2023/12/09 09:38:57;;;;;;;19.40;3.53;;;7.40;99.90;;;;;;5061691;28;20127;-67
2023/12/09 09:41:37;;;;;;;15.77;3.65;;;7.40;99.90;;;;;;5062232;28;20040;-67
2023/12/09 09:44:13;;;;;;;12.32;2.30;;;7.50;99.90;;;;;;5060612;28;20045;-67
2023/12/09 09:46:43;;;;;;;13.68;3.72;;;7.40;99.90;;;;;;5062204;28;20478;-67
2023/12/09 09:49:10;;;;;;;13.60;2.80;;;7.40;99.90;;;;;;5061014;28;20047;-67
2023/12/09 09:51:40;;;;;;;16.75;3.30;;;7.40;99.90;;;;;;5081002;28;20082;-67
2023/12/09 09:54:23;;;;;;;15.10;2.85;;;7.40;99.90;;;;;;5078490;28;20044;-67
2023/12/09 09:56:50;;;;;;;24.15;4.38;;;7.50;99.90;;;;;;5059657;28;20119;-67
2023/12/09 09:59:17;;;;;;;15.98;3.70;;;7.50;99.90;;;;;;5091067;28;20055;-67
2023/12/09 10:01:44;;;;;;;12.20;3.10;;;7.50;99.90;;;;;;5093261;27;20043;-67
2023/12/09 10:04:10;;;;;;;13.32;2.70;;;7.50;99.90;;;;;;5093743;28;20040;-67
2023/12/09 10:06:36;;;;;;;12.10;3.50;;;7.50;99.90;;;;;;5093449;28;20048;-67
2023/12/09 10:09:03;;;;;;;11.10;2.55;;;7.60;99.90;;;;;;5045285;28;20036;-67
2023/12/09 10:11:28;;;;;;;16.42;2.25;;;7.60;99.90;;;;;;5078870;28;20070;-67
2023/12/09 10:13:54;;;;;;;10.60;2.40;;;7.60;99.90;;;;;;5079365;28;20060;-67
2023/12/09 10:16:20;;;;;;;12.68;2.95;;;7.70;99.90;;;;;;5063040;28;20496;-67
2023/12/09 10:18:47;;;;;;;12.73;2.67;;;7.60;99.90;;;;;;5058324;28;20096;-67
2023/12/09 10:21:13;;;;;;;14.02;2.83;;;7.70;99.90;;;;;;5072235;28;20032;-67
2023/12/09 10:23:40;;;;;;;15.75;3.00;;;7.60;99.90;;;;;;5092798;28;20484;-67
2023/12/09 10:26:06;;;;;;;8.38;2.58;;;7.70;99.90;;;;;;5059267;28;20048;-67
2023/12/09 10:28:33;;;;;;;10.88;2.67;;;7.70;99.90;;;;;;5079452;28;20115;-67
2023/12/09 10:30:59;;;;;;;17.20;3.22;;;7.70;99.90;;;;;;5060702;28;20032;-67
2023/12/09 10:33:24;;;;;;;9.55;3.20;;;7.70;99.90;;;;;;5079536;28;20085;-67
2023/12/09 10:35:51;;;;;;;15.68;3.45;;;7.60;99.90;;;;;;5087346;28;20044;-67
2023/12/09 10:38:16;;;;;;;10.50;2.05;;;7.70;99.90;;;;;;5080923;28;20037;-67
2023/12/09 10:40:42;;;;;;;5.40;1.88;;;7.60;99.90;;;;;;5062426;28;20036;-67
2023/12/09 10:43:07;;;;;;;14.98;3.05;;;7.60;99.90;;;;;;5069467;28;20071;-67
2023/12/09 10:45:33;;;;;;;12.98;2.42;;;7.70;99.90;;;;;;5063515;28;20044;-67
2023/12/09 10:48:00;;;;;;;9.82;2.78;;;7.70;99.90;;;;;;5078998;28;20383;-67
2023/12/09 10:50:25;;;;;;;9.43;2.00;;;7.70;99.90;;;;;;5078592;28;20150;-67
2023/12/09 10:52:51;;;;;;;9.60;2.35;;;7.80;99.90;;;;;;5079704;28;20486;-67
2023/12/09 10:55:17;;;;;;;11.30;2.28;;;7.70;99.90;;;;;;5066245;28;20127;-67
2023/12/09 10:57:43;;;;;;;12.65;1.90;;;7.80;99.90;;;;;;5062178;28;20076;-67
2023/12/09 11:00:10;;;;;;;12.48;2.72;;;7.80;99.90;;;;;;5082481;28;20040;-67
2023/12/09 11:02:44;;;;;;;10.05;2.58;;;7.90;99.90;;;;;;5061341;28;20036;-67
2023/12/09 11:05:10;;;;;;;9.02;2.47;;;7.90;99.90;;;;;;5064641;28;20043;-67
2023/12/09 11:07:37;;;;;;;6.75;2.05;;;7.90;99.90;;;;;;5044219;28;20040;-67
2023/12/09 11:10:06;;;;;;;10.43;1.90;;;7.90;99.90;;;;;;5079939;28;20113;-67
2023/12/09 11:12:32;;;;;;;17.83;3.72;;;7.80;99.90;;;;;;5064368;28;20538;-67
2023/12/09 11:15:31;;;;;;;8.93;1.98;;;7.90;99.90;;;;;;5075185;28;20044;-67
2023/12/09 11:18:06;;;;;;;14.80;2.45;;;7.90;99.90;;;;;;5043396;28;20474;-67
2023/12/09 11:20:31;;;;;;;9.10;2.60;;;7.90;99.90;;;;;;5059041;28;20471;-67
2023/12/09 11:23:00;;;;;;;7.70;2.17;;;7.90;99.90;;;;;;5057135;28;20046;-67
2023/12/09 11:25:26;;;;;;;11.07;2.78;;;7.90;99.90;;;;;;5060432;28;20466;-67
2023/12/09 11:27:53;;;;;;;11.15;2.85;;;7.90;99.90;;;;;;5079715;28;20114;-67
2023/12/09 11:30:36;;;;;;;8.30;2.50;;;8.50;99.90;;;;;;5061358;28;20119;-67
2023/12/09 11:33:03;;;;;;;9.65;3.75;;;7.90;99.90;;;;;;5062851;28;20051;-67
2023/12/09 11:35:29;;;;;;;7.32;2.60;;;8.00;99.90;;;;;;5059243;28;20077;-67
2023/12/09 11:37:57;;;;;;;12.80;3.10;;;8.00;99.90;;;;;;5058634;28;20044;-67
2023/12/09 11:40:23;;;;;;;12.50;3.08;;;8.00;99.90;;;;;;5076556;28;20043;-67
2023/12/09 11:42:50;;;;;;;7.35;2.90;;;8.00;99.90;;;;;;5078776;28;20394;-67
2023/12/09 11:45:15;;;;;;;6.88;2.10;;;8.10;99.90;;;;;;5093174;28;20107;-67
2023/12/09 11:47:42;;;;;;;11.15;2.70;;;8.10;99.90;;;;;;5064410;28;20137;-67
2023/12/09 11:50:08;;;;;;;8.77;2.63;;;8.20;99.90;;;;;;5078318;28;20046;-67
2023/12/09 11:52:34;;;;;;;10.55;2.38;;;8.10;99.90;;;;;;5078068;28;20379;-67
2023/12/09 11:55:00;;;;;;;9.07;2.13;;;8.00;99.90;;;;;;5078012;28;20131;-67
2023/12/09 11:57:32;;;;;;;5.80;2.05;;;8.00;99.90;;;;;;5057891;28;20474;-67
2023/12/09 11:59:57;;;;;;;10.32;2.60;;;8.00;99.90;;;;;;5061547;28;20047;-67
2023/12/09 12:02:23;;;;;;;9.30;1.95;;;8.10;99.90;;;;;;5079179;28;20123;-67
2023/12/09 12:04:49;;;;;;;8.65;1.77;;;8.00;99.90;;;;;;5092448;27;20068;-67
2023/12/09 12:07:15;;;;;;;9.50;2.08;;;8.00;99.90;;;;;;5064638;28;20118;-67
2023/12/09 12:09:41;;;;;;;14.25;2.08;;;8.10;99.90;;;;;;5060375;28;20033;-67
2023/12/09 12:12:07;;;;;;;8.43;2.10;;;8.10;99.90;;;;;;5063774;28;20132;-67
2023/12/09 12:14:33;;;;;;;7.15;2.25;;;8.20;99.90;;;;;;5064998;28;20115;-67
2023/12/09 12:16:59;;;;;;;6.32;2.67;;;8.20;99.90;;;;;;5064030;28;20032;-67
2023/12/09 12:19:26;;;;;;;7.82;2.17;;;8.20;99.90;;;;;;5074805;28;20079;-67
2023/12/09 12:21:55;;;;;;;11.90;2.45;;;8.30;99.90;;;;;;5059285;28;20041;-67
2023/12/09 12:24:21;;;;;;;10.18;2.75;;;8.20;99.90;;;;;;5061751;28;20136;-67
2023/12/09 12:26:47;;;;;;;6.50;1.65;;;8.20;99.90;;;;;;5065838;28;20127;-67
2023/12/09 12:29:20;;;;;;;8.95;1.77;;;8.30;99.90;;;;;;5063165;28;20086;-67
2023/12/09 12:31:49;;;;;;;5.15;2.10;;;8.30;99.90;;;;;;5080525;28;20111;-67
2023/12/09 12:34:19;;;;;;;12.30;2.38;;;8.30;99.90;;;;;;5065957;28;20131;-67
2023/12/09 12:36:46;;;;;;;7.60;1.75;;;8.40;99.90;;;;;;5065849;28;20085;-67
2023/12/09 12:39:12;;;;;;;4.95;1.33;;;8.40;99.90;;;;;;5064776;28;20136;-67